sensor_id;sensor_type;location;lat;lon;timestamp;temperature;humidity
74376;HTU21D;62812;55.188;61.302;2022-12-20T00:00:42;-6.04;58.51
74376;HTU21D;62812;55.188;61.302;2022-12-20T00:03:11;-6.22;57.75
74376;HTU21D;62812;55.188;61.302;2022-12-20T00:05:37;-6.33;59.41
74376;HTU21D;62812;55.188;61.302;2022-12-20T00:08:04;-6.41;59.11
74376;HTU21D;62812;55.188;61.302;2022-12-20T00:10:34;-6.48;56.73
74376;HTU21D;62812;55.188;61.302;2022-12-20T00:13:00;-6.58;57.02
74376;HTU21D;62812;55.188;61.302;2022-12-20T00:15:27;-6.66;57.36
74376;HTU21D;62812;55.188;61.302;2022-12-20T00:17:54;-6.62;59.23
74376;HTU21D;62812;55.188;61.302;2022-12-20T00:20:22;-6.59;57.25
74376;HTU21D;62812;55.188;61.302;2022-12-20T00:22:49;-6.64;58.41
74376;HTU21D;62812;55.188;61.302;2022-12-20T00:25:16;-6.68;58.35
74376;HTU21D;62812;55.188;61.302;2022-12-20T00:27:42;-6.64;61.15
74376;HTU21D;62812;55.188;61.302;2022-12-20T00:30:09;-6.74;57.11
74376;HTU21D;62812;55.188;61.302;2022-12-20T00:32:36;-6.82;58.15
74376;HTU21D;62812;55.188;61.302;2022-12-20T00:35:04;-6.82;59.81
74376;HTU21D;62812;55.188;61.302;2022-12-20T00:37:32;-6.88;57.74
74376;HTU21D;62812;55.188;61.302;2022-12-20T00:39:59;-6.91;58.84
74376;HTU21D;62812;55.188;61.302;2022-12-20T00:42:26;-6.89;61.24
74376;HTU21D;62812;55.188;61.302;2022-12-20T00:44:52;-6.89;60.59
74376;HTU21D;62812;55.188;61.302;2022-12-20T00:47:19;-6.87;58.93
74376;HTU21D;62812;55.188;61.302;2022-12-20T00:49:45;-6.98;59.09
74376;HTU21D;62812;55.188;61.302;2022-12-20T00:52:12;-6.96;59.70
74376;HTU21D;62812;55.188;61.302;2022-12-20T00:54:40;-7.02;59.65
74376;HTU21D;62812;55.188;61.302;2022-12-20T00:57:06;-7.03;62.37
74376;HTU21D;62812;55.188;61.302;2022-12-20T00:59:33;-7.02;59.01
74376;HTU21D;62812;55.188;61.302;2022-12-20T01:01:59;-7.11;59.61
74376;HTU21D;62812;55.188;61.302;2022-12-20T01:04:26;-7.13;60.60
74376;HTU21D;62812;55.188;61.302;2022-12-20T01:06:52;-7.22;60.94
74376;HTU21D;62812;55.188;61.302;2022-12-20T01:09:19;-7.20;63.77
74376;HTU21D;62812;55.188;61.302;2022-12-20T01:11:47;-7.21;61.28
74376;HTU21D;62812;55.188;61.302;2022-12-20T01:14:14;-7.20;61.39
74376;HTU21D;62812;55.188;61.302;2022-12-20T01:16:42;-7.03;60.31
74376;HTU21D;62812;55.188;61.302;2022-12-20T01:19:10;-7.26;58.91
74376;HTU21D;62812;55.188;61.302;2022-12-20T01:21:37;-7.26;59.66
74376;HTU21D;62812;55.188;61.302;2022-12-20T01:24:09;-7.26;61.51
74376;HTU21D;62812;55.188;61.302;2022-12-20T01:26:36;-7.33;59.45
74376;HTU21D;62812;55.188;61.302;2022-12-20T01:29:05;-7.36;59.99
74376;HTU21D;62812;55.188;61.302;2022-12-20T01:31:32;-7.42;60.64
74376;HTU21D;62812;55.188;61.302;2022-12-20T01:33:59;-7.45;60.44
74376;HTU21D;62812;55.188;61.302;2022-12-20T01:36:27;-7.46;60.15
74376;HTU21D;62812;55.188;61.302;2022-12-20T01:38:55;-7.49;60.47
74376;HTU21D;62812;55.188;61.302;2022-12-20T01:41:22;-7.50;60.51
74376;HTU21D;62812;55.188;61.302;2022-12-20T01:43:51;-7.57;60.56
74376;HTU21D;62812;55.188;61.302;2022-12-20T01:46:20;-7.63;60.47
74376;HTU21D;62812;55.188;61.302;2022-12-20T01:48:51;-7.71;60.70
74376;HTU21D;62812;55.188;61.302;2022-12-20T01:51:19;-7.71;60.83
74376;HTU21D;62812;55.188;61.302;2022-12-20T01:53:48;-7.67;61.66
74376;HTU21D;62812;55.188;61.302;2022-12-20T01:56:16;-7.77;60.42
74376;HTU21D;62812;55.188;61.302;2022-12-20T01:58:42;-7.81;61.55
74376;HTU21D;62812;55.188;61.302;2022-12-20T02:01:11;-7.78;62.23
74376;HTU21D;62812;55.188;61.302;2022-12-20T02:03:40;-7.71;67.58
74376;HTU21D;62812;55.188;61.302;2022-12-20T02:06:15;-7.56;64.76
74376;HTU21D;62812;55.188;61.302;2022-12-20T02:08:42;-7.53;60.60
74376;HTU21D;62812;55.188;61.302;2022-12-20T02:11:23;-7.60;63.02
74376;HTU21D;62812;55.188;61.302;2022-12-20T02:14:04;-7.56;64.43
74376;HTU21D;62812;55.188;61.302;2022-12-20T02:16:38;-7.48;62.09
74376;HTU21D;62812;55.188;61.302;2022-12-20T02:19:20;-7.41;64.37
74376;HTU21D;62812;55.188;61.302;2022-12-20T02:21:54;-7.37;61.49
74376;HTU21D;62812;55.188;61.302;2022-12-20T02:24:50;-7.39;62.31
74376;HTU21D;62812;55.188;61.302;2022-12-20T02:27:42;-7.51;59.54
74376;HTU21D;62812;55.188;61.302;2022-12-20T02:30:15;-7.47;61.88
74376;HTU21D;62812;55.188;61.302;2022-12-20T02:32:57;-7.63;60.61
74376;HTU21D;62812;55.188;61.302;2022-12-20T02:35:26;-7.55;60.83
74376;HTU21D;62812;55.188;61.302;2022-12-20T02:37:57;-7.41;61.86
74376;HTU21D;62812;55.188;61.302;2022-12-20T02:40:28;-7.48;62.14
74376;HTU21D;62812;55.188;61.302;2022-12-20T02:42:58;-7.59;60.20
74376;HTU21D;62812;55.188;61.302;2022-12-20T02:45:30;-7.67;61.21
74376;HTU21D;62812;55.188;61.302;2022-12-20T02:48:02;-7.65;63.37
74376;HTU21D;62812;55.188;61.302;2022-12-20T02:50:33;-7.77;61.01
74376;HTU21D;62812;55.188;61.302;2022-12-20T02:53:01;-7.84;61.42
74376;HTU21D;62812;55.188;61.302;2022-12-20T02:55:35;-7.89;61.15
74376;HTU21D;62812;55.188;61.302;2022-12-20T02:58:05;-7.93;62.41
74376;HTU21D;62812;55.188;61.302;2022-12-20T03:00:41;-7.93;61.71
74376;HTU21D;62812;55.188;61.302;2022-12-20T03:03:08;-7.95;61.43
74376;HTU21D;62812;55.188;61.302;2022-12-20T03:05:52;-7.96;60.83
74376;HTU21D;62812;55.188;61.302;2022-12-20T03:08:20;-8.03;60.94
74376;HTU21D;62812;55.188;61.302;2022-12-20T03:10:48;-8.10;61.13
74376;HTU21D;62812;55.188;61.302;2022-12-20T03:13:15;-8.16;61.45
74376;HTU21D;62812;55.188;61.302;2022-12-20T03:15:44;-8.19;61.98
74376;HTU21D;62812;55.188;61.302;2022-12-20T03:18:10;-8.22;62.56
74376;HTU21D;62812;55.188;61.302;2022-12-20T03:20:38;-8.25;62.42
74376;HTU21D;62812;55.188;61.302;2022-12-20T03:23:04;-8.23;61.96
74376;HTU21D;62812;55.188;61.302;2022-12-20T03:25:31;-8.24;61.89
74376;HTU21D;62812;55.188;61.302;2022-12-20T03:27:57;-8.29;62.05
74376;HTU21D;62812;55.188;61.302;2022-12-20T03:30:24;-8.36;62.13
74376;HTU21D;62812;55.188;61.302;2022-12-20T03:32:52;-8.39;63.18
74376;HTU21D;62812;55.188;61.302;2022-12-20T03:35:18;-8.44;62.93
74376;HTU21D;62812;55.188;61.302;2022-12-20T03:37:45;-8.36;64.90
74376;HTU21D;62812;55.188;61.302;2022-12-20T03:40:12;-8.41;62.57
74376;HTU21D;62812;55.188;61.302;2022-12-20T03:42:39;-8.34;62.40
74376;HTU21D;62812;55.188;61.302;2022-12-20T03:45:06;-8.34;62.08
74376;HTU21D;62812;55.188;61.302;2022-12-20T03:47:33;-8.33;63.28
74376;HTU21D;62812;55.188;61.302;2022-12-20T03:50:04;-8.22;62.40
74376;HTU21D;62812;55.188;61.302;2022-12-20T03:52:30;-8.19;63.45
74376;HTU21D;62812;55.188;61.302;2022-12-20T03:54:57;-8.24;63.18
74376;HTU21D;62812;55.188;61.302;2022-12-20T03:57:23;-8.34;62.19
74376;HTU21D;62812;55.188;61.302;2022-12-20T03:59:50;-8.36;63.08
74376;HTU21D;62812;55.188;61.302;2022-12-20T04:02:16;-8.36;62.70
74376;HTU21D;62812;55.188;61.302;2022-12-20T04:04:43;-8.37;62.92
74376;HTU21D;62812;55.188;61.302;2022-12-20T04:07:12;-8.29;63.22
74376;HTU21D;62812;55.188;61.302;2022-12-20T04:09:39;-8.46;62.44
74376;HTU21D;62812;55.188;61.302;2022-12-20T04:12:06;-8.62;63.69
74376;HTU21D;62812;55.188;61.302;2022-12-20T04:14:32;-8.69;63.44
74376;HTU21D;62812;55.188;61.302;2022-12-20T04:16:59;-8.75;64.12
74376;HTU21D;62812;55.188;61.302;2022-12-20T04:19:25;-8.80;64.12
74376;HTU21D;62812;55.188;61.302;2022-12-20T04:21:52;-8.80;64.18
74376;HTU21D;62812;55.188;61.302;2022-12-20T04:24:22;-8.79;64.11
74376;HTU21D;62812;55.188;61.302;2022-12-20T04:26:49;-8.68;64.30
74376;HTU21D;62812;55.188;61.302;2022-12-20T04:29:15;-8.53;70.75
74376;HTU21D;62812;55.188;61.302;2022-12-20T04:31:42;-8.38;65.35
74376;HTU21D;62812;55.188;61.302;2022-12-20T04:34:08;-8.28;66.01
74376;HTU21D;62812;55.188;61.302;2022-12-20T04:36:35;-8.27;63.40
74376;HTU21D;62812;55.188;61.302;2022-12-20T04:39:01;-8.20;64.63
74376;HTU21D;62812;55.188;61.302;2022-12-20T04:41:30;-8.15;61.88
74376;HTU21D;62812;55.188;61.302;2022-12-20T04:43:57;-8.18;62.34
74376;HTU21D;62812;55.188;61.302;2022-12-20T04:46:24;-8.24;62.34
74376;HTU21D;62812;55.188;61.302;2022-12-20T04:48:51;-8.34;62.44
74376;HTU21D;62812;55.188;61.302;2022-12-20T04:51:18;-8.36;62.57
74376;HTU21D;62812;55.188;61.302;2022-12-20T04:53:44;-8.38;62.36
74376;HTU21D;62812;55.188;61.302;2022-12-20T04:56:18;-8.43;62.68
74376;HTU21D;62812;55.188;61.302;2022-12-20T04:58:47;-8.48;63.02
74376;HTU21D;62812;55.188;61.302;2022-12-20T05:01:17;-8.54;63.22
74376;HTU21D;62812;55.188;61.302;2022-12-20T05:03:44;-8.57;63.33
74376;HTU21D;62812;55.188;61.302;2022-12-20T05:06:11;-8.63;63.41
74376;HTU21D;62812;55.188;61.302;2022-12-20T05:08:40;-8.66;64.14
74376;HTU21D;62812;55.188;61.302;2022-12-20T05:11:07;-8.67;64.01
74376;HTU21D;62812;55.188;61.302;2022-12-20T05:13:34;-8.66;67.78
74376;HTU21D;62812;55.188;61.302;2022-12-20T05:16:04;-8.60;63.78
74376;HTU21D;62812;55.188;61.302;2022-12-20T05:18:31;-8.56;64.16
74376;HTU21D;62812;55.188;61.302;2022-12-20T05:20:58;-8.46;64.56
74376;HTU21D;62812;55.188;61.302;2022-12-20T05:23:44;-8.43;64.48
74376;HTU21D;62812;55.188;61.302;2022-12-20T05:26:31;-8.41;63.71
74376;HTU21D;62812;55.188;61.302;2022-12-20T05:28:58;-8.28;64.68
74376;HTU21D;62812;55.188;61.302;2022-12-20T05:31:26;-8.24;62.92
74376;HTU21D;62812;55.188;61.302;2022-12-20T05:33:52;-8.23;63.06
74376;HTU21D;62812;55.188;61.302;2022-12-20T05:36:22;-8.22;62.53
74376;HTU21D;62812;55.188;61.302;2022-12-20T05:38:48;-8.10;63.87
74376;HTU21D;62812;55.188;61.302;2022-12-20T05:41:15;-8.04;61.63
74376;HTU21D;62812;55.188;61.302;2022-12-20T05:43:41;-8.05;62.12
74376;HTU21D;62812;55.188;61.302;2022-12-20T05:46:08;-7.95;65.21
74376;HTU21D;62812;55.188;61.302;2022-12-20T05:48:37;-7.70;63.59
74376;HTU21D;62812;55.188;61.302;2022-12-20T05:51:04;-7.70;62.33
74376;HTU21D;62812;55.188;61.302;2022-12-20T05:53:30;-7.71;62.23
74376;HTU21D;62812;55.188;61.302;2022-12-20T05:55:58;-7.64;64.28
74376;HTU21D;62812;55.188;61.302;2022-12-20T05:58:27;-7.51;60.93
74376;HTU21D;62812;55.188;61.302;2022-12-20T06:00:54;-7.46;61.60
74376;HTU21D;62812;55.188;61.302;2022-12-20T06:03:21;-7.47;59.06
74376;HTU21D;62812;55.188;61.302;2022-12-20T06:05:49;-7.45;60.31
74376;HTU21D;62812;55.188;61.302;2022-12-20T06:08:15;-7.41;61.18
74376;HTU21D;62812;55.188;61.302;2022-12-20T06:10:42;-7.56;59.47
74376;HTU21D;62812;55.188;61.302;2022-12-20T06:13:11;-7.52;60.43
74376;HTU21D;62812;55.188;61.302;2022-12-20T06:15:38;-7.51;60.22
74376;HTU21D;62812;55.188;61.302;2022-12-20T06:18:04;-7.60;59.28
74376;HTU21D;62812;55.188;61.302;2022-12-20T06:20:31;-7.63;60.78
74376;HTU21D;62812;55.188;61.302;2022-12-20T06:23:02;-7.64;59.41
74376;HTU21D;62812;55.188;61.302;2022-12-20T06:25:29;-7.64;59.19
74376;HTU21D;62812;55.188;61.302;2022-12-20T06:27:56;-7.56;60.84
74376;HTU21D;62812;55.188;61.302;2022-12-20T06:30:22;-7.52;60.23
74376;HTU21D;62812;55.188;61.302;2022-12-20T06:32:49;-7.49;58.44
74376;HTU21D;62812;55.188;61.302;2022-12-20T06:35:16;-7.44;58.68
74376;HTU21D;62812;55.188;61.302;2022-12-20T06:37:43;-7.42;59.16
74376;HTU21D;62812;55.188;61.302;2022-12-20T06:40:12;-7.44;59.52
74376;HTU21D;62812;55.188;61.302;2022-12-20T06:42:39;-7.48;57.72
74376;HTU21D;62812;55.188;61.302;2022-12-20T06:45:06;-7.41;59.38
74376;HTU21D;62812;55.188;61.302;2022-12-20T06:50:06;-7.46;58.92
74376;HTU21D;62812;55.188;61.302;2022-12-20T06:52:39;-7.47;58.74
74376;HTU21D;62812;55.188;61.302;2022-12-20T06:55:06;-7.45;58.54
74376;HTU21D;62812;55.188;61.302;2022-12-20T06:57:34;-7.44;58.70
74376;HTU21D;62812;55.188;61.302;2022-12-20T07:00:12;-7.46;57.63
74376;HTU21D;62812;55.188;61.302;2022-12-20T07:02:39;-7.48;58.02
74376;HTU21D;62812;55.188;61.302;2022-12-20T07:05:06;-7.50;58.38
74376;HTU21D;62812;55.188;61.302;2022-12-20T07:07:36;-7.49;58.45
74376;HTU21D;62812;55.188;61.302;2022-12-20T07:10:03;-7.45;57.54
74376;HTU21D;62812;55.188;61.302;2022-12-20T07:12:30;-7.39;58.70
74376;HTU21D;62812;55.188;61.302;2022-12-20T07:15:02;-7.34;56.73
74376;HTU21D;62812;55.188;61.302;2022-12-20T07:17:30;-7.33;56.87
74376;HTU21D;62812;55.188;61.302;2022-12-20T07:19:59;-7.24;60.16
74376;HTU21D;62812;55.188;61.302;2022-12-20T07:22:25;-7.19;57.44
74376;HTU21D;62812;55.188;61.302;2022-12-20T07:24:51;-7.19;56.62
74376;HTU21D;62812;55.188;61.302;2022-12-20T07:27:18;-7.23;56.61
74376;HTU21D;62812;55.188;61.302;2022-12-20T07:29:44;-7.27;56.74
74376;HTU21D;62812;55.188;61.302;2022-12-20T07:32:13;-7.31;56.71
74376;HTU21D;62812;55.188;61.302;2022-12-20T07:34:42;-7.30;56.97
74376;HTU21D;62812;55.188;61.302;2022-12-20T07:37:10;-7.29;56.00
74376;HTU21D;62812;55.188;61.302;2022-12-20T07:39:37;-7.23;56.52
74376;HTU21D;62812;55.188;61.302;2022-12-20T07:42:06;-7.23;55.94
74376;HTU21D;62812;55.188;61.302;2022-12-20T07:44:34;-7.20;56.50
74376;HTU21D;62812;55.188;61.302;2022-12-20T07:47:03;-7.21;56.52
74376;HTU21D;62812;55.188;61.302;2022-12-20T07:50:06;-7.18;56.23
74376;HTU21D;62812;55.188;61.302;2022-12-20T07:52:46;-7.21;56.20
74376;HTU21D;62812;55.188;61.302;2022-12-20T07:55:14;-7.20;57.42
74376;HTU21D;62812;55.188;61.302;2022-12-20T07:57:43;-7.20;56.13
74376;HTU21D;62812;55.188;61.302;2022-12-20T08:00:12;-7.19;56.23
74376;HTU21D;62812;55.188;61.302;2022-12-20T08:02:41;-7.16;57.43
74376;HTU21D;62812;55.188;61.302;2022-12-20T08:05:11;-7.09;55.13
74376;HTU21D;62812;55.188;61.302;2022-12-20T08:07:42;-7.05;55.37
74376;HTU21D;62812;55.188;61.302;2022-12-20T08:10:33;-7.02;54.92
74376;HTU21D;62812;55.188;61.302;2022-12-20T08:13:07;-6.96;54.97
74376;HTU21D;62812;55.188;61.302;2022-12-20T08:15:39;-6.87;55.21
74376;HTU21D;62812;55.188;61.302;2022-12-20T08:18:53;-6.81;55.26
74376;HTU21D;62812;55.188;61.302;2022-12-20T08:21:10;-6.64;54.17
74376;HTU21D;62812;55.188;61.302;2022-12-20T08:23:38;-6.56;55.94
74376;HTU21D;62812;55.188;61.302;2022-12-20T08:26:05;-6.47;53.90
74376;HTU21D;62812;55.188;61.302;2022-12-20T08:28:32;-6.45;54.66
74376;HTU21D;62812;55.188;61.302;2022-12-20T08:31:01;-6.47;53.49
74376;HTU21D;62812;55.188;61.302;2022-12-20T08:33:28;-6.46;53.35
74376;HTU21D;62812;55.188;61.302;2022-12-20T08:35:59;-6.49;52.49
74376;HTU21D;62812;55.188;61.302;2022-12-20T08:38:28;-6.50;52.17
74376;HTU21D;62812;55.188;61.302;2022-12-20T08:41:01;-6.52;52.57
74376;HTU21D;62812;55.188;61.302;2022-12-20T08:43:27;-6.53;53.84
74376;HTU21D;62812;55.188;61.302;2022-12-20T08:45:54;-6.46;55.92
74376;HTU21D;62812;55.188;61.302;2022-12-20T08:48:21;-6.43;53.33
74376;HTU21D;62812;55.188;61.302;2022-12-20T08:50:53;-6.39;53.39
74376;HTU21D;62812;55.188;61.302;2022-12-20T08:53:20;-6.36;54.08
74376;HTU21D;62812;55.188;61.302;2022-12-20T08:55:48;-6.38;51.78
74376;HTU21D;62812;55.188;61.302;2022-12-20T08:58:15;-6.39;52.81
74376;HTU21D;62812;55.188;61.302;2022-12-20T09:00:41;-6.44;52.38
74376;HTU21D;62812;55.188;61.302;2022-12-20T09:03:08;-6.41;53.09
74376;HTU21D;62812;55.188;61.302;2022-12-20T09:05:42;-6.34;53.08
74376;HTU21D;62812;55.188;61.302;2022-12-20T09:08:09;-6.32;53.70
74376;HTU21D;62812;55.188;61.302;2022-12-20T09:10:36;-6.30;52.98
74376;HTU21D;62812;55.188;61.302;2022-12-20T09:13:04;-6.27;53.12
74376;HTU21D;62812;55.188;61.302;2022-12-20T09:15:30;-6.30;53.03
74376;HTU21D;62812;55.188;61.302;2022-12-20T09:17:59;-6.24;54.41
74376;HTU21D;62812;55.188;61.302;2022-12-20T09:20:27;-6.22;52.68
74376;HTU21D;62812;55.188;61.302;2022-12-20T09:22:53;-6.30;53.13
74376;HTU21D;62812;55.188;61.302;2022-12-20T09:25:19;-6.22;54.68
74376;HTU21D;62812;55.188;61.302;2022-12-20T09:27:46;-6.21;54.78
74376;HTU21D;62812;55.188;61.302;2022-12-20T09:30:16;-6.21;53.41
74376;HTU21D;62812;55.188;61.302;2022-12-20T09:32:42;-6.21;53.96
74376;HTU21D;62812;55.188;61.302;2022-12-20T09:35:09;-6.18;53.67
74376;HTU21D;62812;55.188;61.302;2022-12-20T09:37:36;-6.18;54.13
74376;HTU21D;62812;55.188;61.302;2022-12-20T09:40:03;-6.12;56.71
74376;HTU21D;62812;55.188;61.302;2022-12-20T09:42:32;-6.12;54.30
74376;HTU21D;62812;55.188;61.302;2022-12-20T09:45:02;-6.07;54.47
74376;HTU21D;62812;55.188;61.302;2022-12-20T09:47:33;-5.99;55.58
74376;HTU21D;62812;55.188;61.302;2022-12-20T09:50:01;-6.07;54.59
74376;HTU21D;62812;55.188;61.302;2022-12-20T09:52:46;-6.11;54.68
74376;HTU21D;62812;55.188;61.302;2022-12-20T09:55:26;-6.17;55.20
74376;HTU21D;62812;55.188;61.302;2022-12-20T09:58:09;-6.21;54.97
74376;HTU21D;62812;55.188;61.302;2022-12-20T10:00:43;-6.05;56.61
74376;HTU21D;62812;55.188;61.302;2022-12-20T10:03:18;-6.01;55.09
74376;HTU21D;62812;55.188;61.302;2022-12-20T10:05:50;-6.09;54.77
74376;HTU21D;62812;55.188;61.302;2022-12-20T10:08:27;-6.15;56.46
74376;HTU21D;62812;55.188;61.302;2022-12-20T10:11:06;-6.17;55.62
74376;HTU21D;62812;55.188;61.302;2022-12-20T10:13:40;-6.27;55.43
74376;HTU21D;62812;55.188;61.302;2022-12-20T10:16:23;-6.37;55.73
74376;HTU21D;62812;55.188;61.302;2022-12-20T10:19:02;-6.51;56.33
74376;HTU21D;62812;55.188;61.302;2022-12-20T10:21:37;-6.51;56.87
74376;HTU21D;62812;55.188;61.302;2022-12-20T10:24:12;-6.52;59.29
74376;HTU21D;62812;55.188;61.302;2022-12-20T10:26:40;-6.53;56.84
74376;HTU21D;62812;55.188;61.302;2022-12-20T10:29:07;-6.45;57.45
74376;HTU21D;62812;55.188;61.302;2022-12-20T10:31:34;-6.45;57.02
74376;HTU21D;62812;55.188;61.302;2022-12-20T10:34:02;-6.39;56.88
74376;HTU21D;62812;55.188;61.302;2022-12-20T10:36:31;-6.36;57.00
74376;HTU21D;62812;55.188;61.302;2022-12-20T10:38:59;-6.42;58.28
74376;HTU21D;62812;55.188;61.302;2022-12-20T10:41:28;-6.36;56.19
74376;HTU21D;62812;55.188;61.302;2022-12-20T10:43:58;-6.39;56.98
74376;HTU21D;62812;55.188;61.302;2022-12-20T10:46:34;-6.46;56.70
74376;HTU21D;62812;55.188;61.302;2022-12-20T10:49:21;-6.55;57.25
74376;HTU21D;62812;55.188;61.302;2022-12-20T10:51:51;-6.50;57.01
74376;HTU21D;62812;55.188;61.302;2022-12-20T10:54:27;-6.56;57.42
74376;HTU21D;62812;55.188;61.302;2022-12-20T10:56:57;-6.52;59.21
74376;HTU21D;62812;55.188;61.302;2022-12-20T10:59:29;-6.47;58.41
74376;HTU21D;62812;55.188;61.302;2022-12-20T11:01:58;-6.59;56.88
74376;HTU21D;62812;55.188;61.302;2022-12-20T11:04:28;-6.70;56.61
74376;HTU21D;62812;55.188;61.302;2022-12-20T11:06:56;-6.72;58.16
74376;HTU21D;62812;55.188;61.302;2022-12-20T11:09:29;-6.71;56.58
74376;HTU21D;62812;55.188;61.302;2022-12-20T11:12:02;-6.87;57.39
74376;HTU21D;62812;55.188;61.302;2022-12-20T11:14:29;-6.87;56.72
74376;HTU21D;62812;55.188;61.302;2022-12-20T11:16:57;-7.01;57.06
74376;HTU21D;62812;55.188;61.302;2022-12-20T11:19:48;-7.09;57.14
74376;HTU21D;62812;55.188;61.302;2022-12-20T11:22:30;-7.23;57.55
74376;HTU21D;62812;55.188;61.302;2022-12-20T11:25:06;-7.31;58.86
74376;HTU21D;62812;55.188;61.302;2022-12-20T11:27:41;-7.41;58.40
74376;HTU21D;62812;55.188;61.302;2022-12-20T11:30:16;-7.47;59.09
74376;HTU21D;62812;55.188;61.302;2022-12-20T11:35:51;-7.63;58.64
74376;HTU21D;62812;55.188;61.302;2022-12-20T11:38:28;-7.57;58.40
74376;HTU21D;62812;55.188;61.302;2022-12-20T11:41:16;-7.56;58.49
74376;HTU21D;62812;55.188;61.302;2022-12-20T11:43:55;-7.62;58.79
74376;HTU21D;62812;55.188;61.302;2022-12-20T11:46:37;-7.68;60.79
74376;HTU21D;62812;55.188;61.302;2022-12-20T11:49:19;-7.71;59.51
74376;HTU21D;62812;55.188;61.302;2022-12-20T11:51:52;-7.80;59.66
74376;HTU21D;62812;55.188;61.302;2022-12-20T11:54:24;-7.74;60.28
74376;HTU21D;62812;55.188;61.302;2022-12-20T11:56:55;-7.90;59.38
74376;HTU21D;62812;55.188;61.302;2022-12-20T11:59:30;-8.04;59.92
74376;HTU21D;62812;55.188;61.302;2022-12-20T12:02:03;-8.18;59.89
74376;HTU21D;62812;55.188;61.302;2022-12-20T12:04:33;-8.18;60.58
74376;HTU21D;62812;55.188;61.302;2022-12-20T12:07:07;-8.14;60.29
74376;HTU21D;62812;55.188;61.302;2022-12-20T12:09:37;-8.09;60.04
74376;HTU21D;62812;55.188;61.302;2022-12-20T12:12:07;-8.14;60.09
74376;HTU21D;62812;55.188;61.302;2022-12-20T12:14:46;-8.19;60.17
74376;HTU21D;62812;55.188;61.302;2022-12-20T12:17:20;-8.27;59.82
74376;HTU21D;62812;55.188;61.302;2022-12-20T12:19:53;-8.38;60.45
74376;HTU21D;62812;55.188;61.302;2022-12-20T12:22:27;-8.29;60.80
74376;HTU21D;62812;55.188;61.302;2022-12-20T12:25:00;-8.33;60.54
74376;HTU21D;62812;55.188;61.302;2022-12-20T12:27:28;-8.35;60.09
74376;HTU21D;62812;55.188;61.302;2022-12-20T12:29:57;-8.42;60.53
74376;HTU21D;62812;55.188;61.302;2022-12-20T12:32:30;-8.39;60.12
74376;HTU21D;62812;55.188;61.302;2022-12-20T12:35:22;-8.51;61.50
74376;HTU21D;62812;55.188;61.302;2022-12-20T12:38:03;-8.53;60.15
74376;HTU21D;62812;55.188;61.302;2022-12-20T12:40:54;-8.43;61.28
74376;HTU21D;62812;55.188;61.302;2022-12-20T12:43:43;-8.46;60.12
74376;HTU21D;62812;55.188;61.302;2022-12-20T12:46:12;-8.41;61.03
74376;HTU21D;62812;55.188;61.302;2022-12-20T12:48:45;-8.46;59.63
74376;HTU21D;62812;55.188;61.302;2022-12-20T12:51:24;-8.41;60.63
74376;HTU21D;62812;55.188;61.302;2022-12-20T12:54:01;-8.52;60.77
74376;HTU21D;62812;55.188;61.302;2022-12-20T12:56:38;-8.59;59.79
74376;HTU21D;62812;55.188;61.302;2022-12-20T12:59:20;-8.82;60.35
74376;HTU21D;62812;55.188;61.302;2022-12-20T13:01:49;-8.87;60.33
74376;HTU21D;62812;55.188;61.302;2022-12-20T13:04:26;-8.92;60.26
74376;HTU21D;62812;55.188;61.302;2022-12-20T13:06:58;-8.96;60.69
74376;HTU21D;62812;55.188;61.302;2022-12-20T13:09:38;-8.89;60.68
74376;HTU21D;62812;55.188;61.302;2022-12-20T13:15:46;-9.09;61.04
74376;HTU21D;62812;55.188;61.302;2022-12-20T13:18:33;-9.18;60.79
74376;HTU21D;62812;55.188;61.302;2022-12-20T13:27:34;-9.11;61.95
74376;HTU21D;62812;55.188;61.302;2022-12-20T13:30:22;-9.20;60.87
74376;HTU21D;62812;55.188;61.302;2022-12-20T13:36:31;-9.04;60.63
74376;HTU21D;62812;55.188;61.302;2022-12-20T13:39:00;-8.96;60.89
74376;HTU21D;62812;55.188;61.302;2022-12-20T13:41:36;-8.85;61.02
74376;HTU21D;62812;55.188;61.302;2022-12-20T13:44:34;-8.62;59.60
74376;HTU21D;62812;55.188;61.302;2022-12-20T13:47:09;-8.71;58.53
74376;HTU21D;62812;55.188;61.302;2022-12-20T13:49:39;-8.83;59.34
74376;HTU21D;62812;55.188;61.302;2022-12-20T13:52:12;-9.02;60.66
74376;HTU21D;62812;55.188;61.302;2022-12-20T13:54:44;-8.97;60.96
74376;HTU21D;62812;55.188;61.302;2022-12-20T13:57:14;-8.94;61.12
74376;HTU21D;62812;55.188;61.302;2022-12-20T13:59:45;-8.99;58.83
74376;HTU21D;62812;55.188;61.302;2022-12-20T14:02:20;-9.02;60.86
74376;HTU21D;62812;55.188;61.302;2022-12-20T14:04:54;-8.71;59.96
74376;HTU21D;62812;55.188;61.302;2022-12-20T14:07:22;-8.74;58.17
74376;HTU21D;62812;55.188;61.302;2022-12-20T14:09:54;-8.94;57.98
74376;HTU21D;62812;55.188;61.302;2022-12-20T14:12:21;-9.19;58.72
74376;HTU21D;62812;55.188;61.302;2022-12-20T14:14:50;-9.25;60.02
74376;HTU21D;62812;55.188;61.302;2022-12-20T14:17:22;-9.33;59.77
74376;HTU21D;62812;55.188;61.302;2022-12-20T14:20:05;-9.60;60.08
74376;HTU21D;62812;55.188;61.302;2022-12-20T14:22:33;-9.82;61.72
74376;HTU21D;62812;55.188;61.302;2022-12-20T14:25:00;-9.96;60.97
74376;HTU21D;62812;55.188;61.302;2022-12-20T14:27:32;-10.00;61.31
74376;HTU21D;62812;55.188;61.302;2022-12-20T14:30:35;-10.06;61.28
74376;HTU21D;62812;55.188;61.302;2022-12-20T14:33:18;-10.11;61.41
74376;HTU21D;62812;55.188;61.302;2022-12-20T14:35:46;-10.19;62.27
74376;HTU21D;62812;55.188;61.302;2022-12-20T14:38:21;-10.27;62.16
74376;HTU21D;62812;55.188;61.302;2022-12-20T14:40:48;-10.25;62.11
74376;HTU21D;62812;55.188;61.302;2022-12-20T14:43:15;-10.20;61.92
74376;HTU21D;62812;55.188;61.302;2022-12-20T14:45:43;-10.21;61.73
74376;HTU21D;62812;55.188;61.302;2022-12-20T14:48:14;-10.27;62.01
74376;HTU21D;62812;55.188;61.302;2022-12-20T14:50:51;-10.35;62.13
74376;HTU21D;62812;55.188;61.302;2022-12-20T14:53:20;-10.38;62.25
74376;HTU21D;62812;55.188;61.302;2022-12-20T14:55:48;-10.38;62.34
74376;HTU21D;62812;55.188;61.302;2022-12-20T14:58:24;-10.45;62.15
74376;HTU21D;62812;55.188;61.302;2022-12-20T15:00:57;-10.38;63.18
74376;HTU21D;62812;55.188;61.302;2022-12-20T15:03:25;-10.37;62.28
74376;HTU21D;62812;55.188;61.302;2022-12-20T15:05:53;-10.40;62.57
74376;HTU21D;62812;55.188;61.302;2022-12-20T15:08:23;-10.37;62.44
74376;HTU21D;62812;55.188;61.302;2022-12-20T15:10:56;-10.46;63.31
74376;HTU21D;62812;55.188;61.302;2022-12-20T15:13:27;-10.47;63.02
74376;HTU21D;62812;55.188;61.302;2022-12-20T15:16:02;-10.53;63.31
74376;HTU21D;62812;55.188;61.302;2022-12-20T15:18:32;-10.52;63.75
74376;HTU21D;62812;55.188;61.302;2022-12-20T15:21:04;-10.51;63.11
74376;HTU21D;62812;55.188;61.302;2022-12-20T15:23:32;-10.55;63.14
74376;HTU21D;62812;55.188;61.302;2022-12-20T15:25:59;-10.55;63.31
74376;HTU21D;62812;55.188;61.302;2022-12-20T15:28:26;-10.57;63.25
74376;HTU21D;62812;55.188;61.302;2022-12-20T15:30:52;-10.60;64.14
74376;HTU21D;62812;55.188;61.302;2022-12-20T15:33:23;-10.63;64.01
74376;HTU21D;62812;55.188;61.302;2022-12-20T15:35:50;-10.67;63.87
74376;HTU21D;62812;55.188;61.302;2022-12-20T15:38:19;-10.70;64.26
74376;HTU21D;62812;55.188;61.302;2022-12-20T15:40:48;-10.70;64.11